KOEO/OEO METAR and TAF weather

Enter ICAO airport designator
Station Type Date Time Source
KOEO METAR 2019/08/26 06:55 UTC NOAA

KOEO 260655Z AUTO 13004KT 10SM OVC042 17/16 A2992 RMK AO2 T01730160


Station Type Date Time Source
KOEO Decoded METAR 2019/08/26 06:55 UTC NOAA

Station name not available
Aug 26, 2019 - 02:55 AM EDT / 2019.08.26 0655 UTC
Wind: from the SE (130 degrees) at 5 MPH (4 KT):0
Visibility: 10 mile(s):0
Sky conditions: overcast
Temperature: 63.1 F (17.3 C)
Dew Point: 60.8 F (16.0 C)
Relative Humidity: 92%
Pressure (altimeter): 29.92 in. Hg (1013 hPa)
ob: KOEO 260655Z AUTO 13004KT 10SM OVC042 17/16 A2992 RMK AO2 T01730160
cycle: 7

Station Type Date Time Source
KOEO TAF UTC NOAA

Error!

Example: see airport list